createdAt,value
2019-03-25T00:01:03.793Z,33.47
2019-03-25T00:03:34.879Z,33.57
2019-03-25T00:06:06.064Z,32.63
2019-03-25T00:08:37.131Z,32.47
2019-03-25T00:11:08.287Z,32.13
2019-03-25T00:13:39.427Z,33.43
2019-03-25T00:16:10.472Z,31.93
2019-03-25T00:18:41.571Z,31.90
2019-03-25T00:21:12.719Z,33.57
2019-03-25T00:23:43.766Z,31.67
2019-03-25T00:26:14.946Z,31.90
2019-03-25T00:28:47.035Z,33.37
2019-03-25T00:31:18.137Z,32.23
2019-03-25T00:33:49.159Z,30.47
2019-03-25T00:36:21.361Z,30.93
2019-03-25T00:38:53.848Z,31.30
2019-03-25T00:41:24.882Z,30.93
2019-03-25T00:43:55.955Z,32.30
2019-03-25T00:46:27.055Z,30.07
2019-03-25T00:48:58.148Z,30.67
2019-03-25T00:51:29.169Z,31.50
2019-03-25T00:54:00.255Z,31.87
2019-03-25T00:56:31.288Z,30.60
2019-03-25T00:59:02.453Z,30.33
2019-03-25T01:01:34.039Z,29.40
2019-03-25T01:04:05.027Z,30.93
2019-03-25T01:06:36.124Z,28.37
2019-03-25T01:09:08.159Z,27.70
2019-03-25T01:11:48.726Z,28.93
2019-03-25T01:14:11.936Z,27.30
2019-03-25T01:16:43.051Z,26.30
2019-03-25T01:19:14.298Z,27.13
2019-03-25T01:21:45.312Z,24.87
2019-03-25T01:24:17.375Z,25.77
2019-03-25T01:26:48.459Z,26.13
2019-03-25T01:29:19.472Z,26.83
2019-03-25T01:31:50.523Z,25.77
2019-03-25T01:34:21.592Z,26.67
2019-03-25T01:36:52.670Z,25.47
2019-03-25T01:39:23.731Z,26.47
2019-03-25T01:41:54.788Z,26.13
2019-03-25T01:44:25.802Z,26.27
2019-03-25T01:46:56.802Z,24.77
2019-03-25T01:49:27.868Z,25.23
2019-03-25T01:51:58.950Z,24.17
2019-03-25T01:54:30.005Z,24.57
2019-03-25T01:57:01.135Z,24.97
2019-03-25T01:59:32.169Z,25.13
2019-03-25T02:02:03.289Z,23.73
2019-03-25T02:04:34.309Z,24.60
2019-03-25T02:07:05.310Z,24.90
2019-03-25T02:09:36.339Z,25.07
2019-03-25T02:12:07.437Z,25.07
2019-03-25T02:14:38.454Z,28.47
2019-03-25T02:17:09.486Z,26.47
2019-03-25T02:19:40.534Z,24.70
2019-03-25T02:22:13.413Z,25.33
2019-03-25T02:24:44.470Z,27.37
2019-03-25T02:27:15.509Z,25.43
2019-03-25T02:29:47.206Z,25.87
2019-03-25T02:32:18.368Z,31.47
2019-03-25T02:34:50.336Z,27.23
2019-03-25T02:37:21.411Z,29.33
2019-03-25T02:39:52.388Z,28.50
2019-03-25T02:42:23.472Z,30.07
2019-03-25T02:44:54.435Z,29.63
2019-03-25T02:47:25.528Z,30.83
2019-03-25T02:49:56.559Z,31.20
2019-03-25T02:52:27.692Z,28.37
2019-03-25T02:54:58.761Z,25.63
2019-03-25T02:57:29.972Z,23.87
2019-03-25T03:00:01.058Z,24.70
2019-03-25T03:02:33.231Z,23.67
2019-03-25T03:05:04.312Z,22.83
2019-03-25T03:07:35.483Z,22.10
2019-03-25T03:10:07.648Z,22.53
2019-03-25T03:12:38.777Z,22.30
2019-03-25T03:15:10.320Z,21.73
2019-03-25T03:17:41.490Z,21.43
2019-03-25T03:20:12.627Z,20.33
2019-03-25T03:22:45.124Z,21.20
2019-03-25T03:25:16.246Z,21.43
2019-03-25T03:27:47.293Z,19.97
2019-03-25T03:30:18.515Z,22.07
2019-03-25T03:32:49.640Z,20.67
2019-03-25T03:35:20.684Z,20.83
2019-03-25T03:37:51.727Z,21.63
2019-03-25T03:40:24.121Z,22.57
2019-03-25T03:42:55.366Z,21.50
2019-03-25T03:45:26.420Z,22.13
2019-03-25T03:47:57.407Z,22.77
2019-03-25T03:50:29.175Z,23.57
2019-03-25T03:53:00.189Z,22.07
2019-03-25T03:55:31.814Z,22.03
2019-03-25T03:58:03.050Z,22.60
2019-03-25T04:00:35.820Z,23.60
2019-03-25T04:03:06.933Z,23.53
2019-03-25T04:05:38.035Z,21.83
2019-03-25T04:08:09.171Z,22.93
2019-03-25T04:10:40.246Z,22.03
2019-03-25T04:13:11.261Z,21.37
2019-03-25T04:15:42.427Z,21.57
2019-03-25T04:18:13.457Z,22.57
2019-03-25T04:20:44.464Z,22.33
2019-03-25T04:23:15.543Z,22.83
2019-03-25T04:25:46.706Z,21.50
2019-03-25T04:28:17.728Z,22.57
2019-03-25T04:30:48.827Z,21.67
2019-03-25T04:33:19.984Z,22.53
2019-03-25T04:35:51.047Z,21.23
2019-03-25T04:38:22.062Z,21.73
2019-03-25T04:40:53.079Z,21.30
2019-03-25T04:43:24.095Z,20.83
2019-03-25T04:45:55.094Z,20.97
2019-03-25T04:48:26.596Z,21.90
2019-03-25T04:50:57.735Z,21.43
2019-03-25T04:53:28.687Z,23.43
2019-03-25T04:55:59.758Z,21.73
2019-03-25T04:58:30.816Z,21.13
2019-03-25T05:01:01.871Z,22.67
2019-03-25T05:03:33.467Z,22.10
2019-03-25T05:06:04.536Z,21.27
2019-03-25T05:08:35.588Z,20.83
2019-03-25T05:11:06.700Z,20.40
2019-03-25T05:13:37.750Z,21.67
2019-03-25T05:16:08.751Z,22.87
2019-03-25T05:18:39.791Z,20.47
2019-03-25T05:21:10.780Z,21.00
2019-03-25T05:23:41.802Z,21.93
2019-03-25T05:26:12.840Z,20.23
2019-03-25T05:28:43.929Z,21.73
2019-03-25T05:31:14.949Z,20.87
2019-03-25T05:33:45.980Z,19.57
2019-03-25T05:36:17.135Z,19.40
2019-03-25T05:38:48.234Z,19.13
2019-03-25T05:41:19.346Z,17.57
2019-03-25T05:43:50.490Z,16.27
2019-03-25T05:46:21.559Z,15.97
2019-03-25T05:48:52.570Z,13.87
2019-03-25T05:51:23.558Z,14.63
2019-03-25T05:53:54.588Z,13.73
2019-03-25T05:56:25.580Z,13.80
2019-03-25T05:58:57.134Z,13.77
2019-03-25T06:01:28.506Z,12.50
2019-03-25T06:03:59.586Z,12.20
2019-03-25T06:06:30.686Z,12.77
2019-03-25T06:09:03.031Z,13.77
2019-03-25T06:11:34.003Z,11.33
2019-03-25T06:14:05.042Z,13.30
2019-03-25T06:16:36.087Z,12.23
2019-03-25T06:19:07.182Z,12.03
2019-03-25T06:21:38.214Z,13.20
2019-03-25T06:24:09.271Z,12.77
2019-03-25T06:26:40.329Z,12.23
2019-03-25T06:29:11.406Z,11.03
2019-03-25T06:31:42.752Z,11.60
2019-03-25T06:34:13.897Z,11.37
2019-03-25T06:36:46.054Z,11.07
2019-03-25T06:39:17.107Z,11.60
2019-03-25T06:41:48.262Z,9.97
2019-03-25T06:44:19.626Z,10.80
2019-03-25T06:46:50.727Z,10.93
2019-03-25T06:49:21.746Z,10.90
2019-03-25T06:51:52.865Z,10.50
2019-03-25T06:54:24.034Z,13.40
2019-03-25T06:56:56.166Z,21.50
2019-03-25T06:59:27.238Z,35.03
2019-03-25T07:01:58.339Z,31.57
2019-03-25T07:04:29.442Z,17.43
2019-03-25T07:07:00.656Z,23.47
2019-03-25T07:09:31.810Z,23.30
2019-03-25T07:12:02.819Z,26.47
2019-03-25T07:14:34.042Z,32.63
2019-03-25T07:17:05.068Z,30.93
2019-03-25T07:19:36.090Z,22.53
2019-03-25T07:22:07.094Z,13.63
2019-03-25T07:24:38.243Z,14.77
2019-03-25T07:27:09.290Z,14.60
2019-03-25T07:29:40.422Z,15.47
2019-03-25T07:32:11.548Z,13.23
2019-03-25T07:34:42.548Z,11.73
2019-03-25T07:37:13.588Z,12.33
2019-03-25T07:39:44.593Z,17.03
2019-03-25T07:42:15.602Z,23.33
2019-03-25T07:44:46.746Z,15.57
2019-03-25T07:47:18.021Z,9.27
2019-03-25T07:49:49.168Z,12.03
2019-03-25T07:52:20.356Z,15.97
2019-03-25T07:54:51.430Z,9.30
2019-03-25T07:57:22.495Z,8.50
2019-03-25T07:59:53.567Z,8.40
2019-03-25T08:02:25.647Z,6.10
2019-03-25T08:04:56.655Z,6.87
2019-03-25T08:07:27.638Z,6.60
2019-03-25T08:09:58.754Z,6.80
2019-03-25T08:12:29.762Z,6.80
2019-03-25T08:15:00.825Z,7.30
2019-03-25T08:17:32.120Z,6.50
2019-03-25T08:20:03.195Z,4.83
2019-03-25T08:22:34.392Z,5.13
2019-03-25T08:25:05.782Z,5.73
2019-03-25T08:27:36.811Z,5.67
2019-03-25T08:30:09.362Z,4.50
2019-03-25T08:32:40.469Z,4.10
2019-03-25T08:35:12.184Z,4.50
2019-03-25T08:37:43.248Z,5.83
2019-03-25T08:40:14.635Z,12.27
2019-03-25T08:42:45.737Z,13.30
2019-03-25T08:45:16.906Z,11.20
2019-03-25T08:47:47.850Z,8.73
2019-03-25T08:50:19.406Z,6.47
2019-03-25T08:52:50.393Z,5.17
2019-03-25T08:55:21.638Z,5.30
2019-03-25T08:57:52.713Z,4.90
2019-03-25T09:00:24.848Z,4.53
2019-03-25T09:02:55.804Z,6.63
2019-03-25T09:05:27.133Z,6.20
2019-03-25T09:07:58.176Z,8.83
2019-03-25T09:10:29.243Z,7.10
2019-03-25T09:13:00.312Z,6.43
2019-03-25T09:15:31.376Z,7.97
2019-03-25T09:18:02.408Z,6.57
2019-03-25T09:20:33.524Z,5.70
2019-03-25T09:23:04.534Z,9.33
2019-03-25T09:25:35.689Z,12.20
2019-03-25T09:28:06.717Z,14.73
2019-03-25T09:31:12.648Z,10.27
2019-03-25T09:33:43.970Z,10.73
2019-03-25T09:36:15.818Z,8.80
2019-03-25T09:38:46.840Z,6.30
2019-03-25T09:41:18.007Z,6.73
2019-03-25T09:43:49.028Z,7.13
2019-03-25T09:46:20.164Z,8.43
2019-03-25T09:48:51.219Z,16.87
2019-03-25T09:51:22.371Z,11.87
2019-03-25T09:53:53.525Z,9.47
2019-03-25T09:56:24.590Z,8.80
2019-03-25T09:58:55.608Z,7.70
2019-03-25T10:01:26.751Z,8.70
2019-03-25T10:03:57.760Z,19.83
2019-03-25T10:06:30.134Z,11.13
2019-03-25T10:09:01.303Z,10.53
2019-03-25T10:11:32.901Z,7.50
2019-03-25T10:14:03.982Z,7.63
2019-03-25T10:16:35.043Z,9.20
2019-03-25T10:19:06.149Z,7.87
2019-03-25T10:21:37.137Z,6.43
2019-03-25T10:24:08.311Z,8.90
2019-03-25T10:26:39.429Z,13.70
2019-03-25T10:29:10.441Z,10.73
2019-03-25T10:31:41.514Z,8.10
2019-03-25T10:34:12.588Z,17.00
2019-03-25T10:36:43.687Z,12.93
2019-03-25T10:39:14.772Z,8.13
2019-03-25T10:41:45.825Z,6.60
2019-03-25T10:44:16.885Z,6.53
2019-03-25T10:46:48.010Z,6.93
2019-03-25T10:49:19.131Z,7.20
2019-03-25T10:51:50.189Z,7.57
2019-03-25T10:54:21.486Z,7.83
2019-03-25T10:56:52.607Z,7.40
2019-03-25T10:59:23.769Z,7.90
2019-03-25T11:01:54.840Z,11.33
2019-03-25T11:04:25.934Z,11.83
2019-03-25T11:06:57.017Z,7.77
2019-03-25T11:09:28.191Z,6.63
2019-03-25T11:11:59.241Z,6.03
2019-03-25T11:14:30.261Z,14.63
2019-03-25T11:17:01.333Z,16.23
2019-03-25T11:19:32.417Z,11.03
2019-03-25T11:22:03.541Z,7.63
2019-03-25T11:24:34.784Z,7.70
2019-03-25T11:27:05.987Z,9.27
2019-03-25T11:29:37.077Z,10.57
2019-03-25T11:32:08.097Z,8.37
2019-03-25T11:34:39.063Z,7.30
2019-03-25T11:37:10.121Z,6.93
2019-03-25T11:39:41.189Z,7.13
2019-03-25T11:42:12.165Z,6.60
2019-03-25T11:44:43.185Z,6.37
2019-03-25T11:47:14.302Z,7.63
2019-03-25T11:49:45.406Z,7.90
2019-03-25T11:52:16.523Z,8.30
2019-03-25T11:54:47.517Z,7.73
2019-03-25T11:57:18.564Z,8.20
2019-03-25T11:59:49.629Z,7.67
2019-03-25T12:02:20.995Z,7.20
2019-03-25T12:04:52.163Z,7.83
2019-03-25T12:07:23.333Z,8.40
2019-03-25T12:09:54.414Z,8.67
2019-03-25T12:12:25.529Z,8.03
2019-03-25T12:14:56.646Z,8.20
2019-03-25T12:17:27.667Z,7.37
2019-03-25T12:19:58.681Z,8.80
2019-03-25T12:22:29.725Z,7.97
2019-03-25T12:25:00.765Z,8.20
2019-03-25T12:27:31.984Z,8.70
2019-03-25T12:30:03.293Z,8.73
2019-03-25T12:32:34.443Z,7.20
2019-03-25T12:35:06.028Z,7.87
2019-03-25T12:37:37.167Z,7.97
2019-03-25T12:40:08.475Z,6.63
2019-03-25T12:42:39.635Z,6.63
2019-03-25T12:45:10.913Z,7.47
2019-03-25T12:47:41.883Z,8.47
2019-03-25T12:50:13.160Z,10.87
2019-03-25T12:52:44.232Z,16.17
2019-03-25T12:55:15.315Z,26.47
2019-03-25T12:57:46.501Z,21.33
2019-03-25T13:00:21.783Z,32.47
2019-03-25T13:02:52.866Z,15.67
2019-03-25T13:05:23.955Z,13.53
2019-03-25T13:07:55.001Z,13.83
2019-03-25T13:10:26.111Z,12.77
2019-03-25T13:12:57.303Z,13.37
2019-03-25T13:15:28.353Z,13.17
2019-03-25T13:17:59.423Z,11.93
2019-03-25T13:20:30.658Z,11.77
2019-03-25T13:23:01.739Z,10.40
2019-03-25T13:25:33.956Z,12.90
2019-03-25T13:28:05.179Z,16.37
2019-03-25T13:30:36.198Z,32.33
2019-03-25T13:33:07.380Z,38.90
2019-03-25T13:35:38.519Z,27.03
2019-03-25T13:38:09.560Z,18.53
2019-03-25T13:40:40.637Z,21.17
2019-03-25T13:43:11.655Z,20.43
2019-03-25T13:45:42.690Z,19.40
2019-03-25T13:48:13.787Z,11.47
2019-03-25T13:50:44.850Z,16.97
2019-03-25T13:53:15.902Z,9.30
2019-03-25T13:55:46.912Z,7.00
2019-03-25T13:58:18.071Z,6.90
2019-03-25T14:00:49.116Z,7.53
2019-03-25T14:03:20.140Z,7.23
2019-03-25T14:05:51.207Z,6.90
2019-03-25T14:08:22.247Z,8.33
2019-03-25T14:10:53.311Z,7.50
2019-03-25T14:13:24.431Z,8.40
2019-03-25T14:15:55.569Z,8.50
2019-03-25T14:18:26.627Z,8.33
2019-03-25T14:20:57.696Z,8.93
2019-03-25T14:23:28.733Z,8.20
2019-03-25T14:25:59.777Z,9.57
2019-03-25T14:28:30.869Z,8.27
2019-03-25T14:31:01.931Z,8.57
2019-03-25T14:33:33.013Z,9.27
2019-03-25T14:36:04.087Z,9.10
2019-03-25T14:38:35.171Z,6.60
2019-03-25T14:41:06.278Z,12.97
2019-03-25T14:43:37.263Z,21.13
2019-03-25T14:46:08.451Z,14.70
2019-03-25T14:48:39.525Z,20.63
2019-03-25T14:51:10.505Z,15.20
2019-03-25T14:53:45.180Z,7.13
2019-03-25T14:56:14.482Z,8.67
2019-03-25T14:58:45.593Z,16.73
2019-03-25T15:01:16.557Z,26.03
2019-03-25T15:03:47.795Z,26.30
2019-03-25T15:06:20.831Z,20.50
2019-03-25T15:08:51.919Z,8.27
2019-03-25T15:11:24.439Z,8.67
2019-03-25T15:13:55.555Z,6.27
2019-03-25T15:16:26.549Z,5.27
2019-03-25T15:18:58.738Z,4.43
2019-03-25T15:21:29.727Z,4.40
2019-03-25T15:24:00.899Z,6.57
2019-03-25T15:26:31.906Z,6.40
2019-03-25T15:29:03.025Z,5.67
2019-03-25T15:31:34.171Z,4.10
2019-03-25T15:34:06.333Z,3.67
2019-03-25T15:36:38.299Z,4.03
2019-03-25T15:39:09.935Z,4.30
2019-03-25T15:41:40.944Z,4.83
2019-03-25T15:44:11.984Z,5.13
2019-03-25T15:46:43.045Z,5.27
2019-03-25T15:49:14.105Z,4.97
2019-03-25T15:51:45.089Z,5.27
2019-03-25T15:54:16.192Z,4.97
2019-03-25T15:56:50.223Z,4.70
2019-03-25T15:59:21.825Z,5.20
2019-03-25T16:01:52.869Z,5.20
2019-03-25T16:04:23.851Z,5.53
2019-03-25T16:06:54.960Z,6.03
2019-03-25T16:09:25.978Z,10.53
2019-03-25T16:11:57.077Z,10.27
2019-03-25T16:14:28.234Z,6.63
2019-03-25T16:16:59.319Z,12.23
2019-03-25T16:19:30.283Z,6.90
2019-03-25T16:22:01.877Z,6.53
2019-03-25T16:24:33.961Z,5.50
2019-03-25T16:27:04.982Z,4.63
2019-03-25T16:29:36.077Z,4.77
2019-03-25T16:32:07.096Z,5.23
2019-03-25T16:34:38.171Z,6.03
2019-03-25T16:37:09.207Z,5.83
2019-03-25T16:39:41.414Z,5.77
2019-03-25T16:42:12.392Z,6.00
2019-03-25T16:44:43.515Z,6.43
2019-03-25T16:47:14.498Z,6.23
2019-03-25T16:49:45.613Z,6.80
2019-03-25T16:52:16.578Z,6.87
2019-03-25T16:54:47.619Z,7.10
2019-03-25T16:57:19.069Z,8.90
2019-03-25T16:59:53.480Z,8.50
2019-03-25T17:02:24.533Z,8.50
2019-03-25T17:04:55.652Z,12.17
2019-03-25T17:07:26.736Z,9.67
2019-03-25T17:09:57.869Z,12.17
2019-03-25T17:12:30.003Z,10.83
2019-03-25T17:15:01.012Z,9.93
2019-03-25T17:17:32.374Z,9.87
2019-03-25T17:20:03.388Z,8.13
2019-03-25T17:22:53.008Z,9.17
2019-03-25T17:25:25.075Z,8.37
2019-03-25T17:27:56.253Z,9.67
2019-03-25T17:30:27.505Z,9.23
2019-03-25T17:32:58.585Z,9.63
2019-03-25T17:35:29.678Z,10.60
2019-03-25T17:38:00.750Z,14.37
2019-03-25T17:40:31.806Z,14.03
2019-03-25T17:43:02.898Z,11.07
2019-03-25T17:45:35.543Z,10.20
2019-03-25T17:48:08.719Z,10.10
2019-03-25T17:50:39.726Z,15.80
2019-03-25T17:53:10.777Z,16.97
2019-03-25T17:55:42.851Z,18.67
2019-03-25T17:58:13.967Z,12.93
2019-03-25T18:01:37.829Z,10.23
2019-03-25T18:04:08.988Z,18.77
2019-03-25T18:06:40.090Z,19.73
2019-03-25T18:09:11.841Z,17.77
2019-03-25T18:11:44.457Z,25.60
2019-03-25T18:14:17.140Z,20.37
2019-03-25T18:16:48.206Z,18.77
2019-03-25T18:19:20.276Z,20.40
2019-03-25T18:21:51.334Z,21.37
2019-03-25T18:24:22.356Z,18.13
2019-03-25T18:26:53.378Z,15.60
2019-03-25T18:29:24.413Z,13.17
2019-03-25T18:31:55.513Z,11.80
2019-03-25T18:34:26.589Z,11.30
2019-03-25T18:36:57.614Z,11.50
2019-03-25T18:39:28.609Z,11.13
2019-03-25T18:41:59.649Z,11.37
2019-03-25T18:44:30.683Z,10.70
2019-03-25T18:47:01.815Z,10.33
2019-03-25T18:49:33.794Z,10.87
2019-03-25T18:52:05.214Z,12.17
2019-03-25T18:54:36.446Z,13.43
2019-03-25T18:57:07.497Z,13.73
2019-03-25T18:59:39.632Z,14.17
2019-03-25T19:02:11.135Z,13.63
2019-03-25T19:04:42.214Z,13.80
2019-03-25T19:07:13.297Z,16.13
2019-03-25T19:09:46.447Z,14.53
2019-03-25T19:12:17.485Z,16.00
2019-03-25T19:14:49.672Z,15.53
2019-03-25T19:17:20.806Z,14.97
2019-03-25T19:19:51.846Z,16.07
2019-03-25T19:22:22.926Z,15.77
2019-03-25T19:24:53.983Z,16.33
2019-03-25T19:27:27.042Z,16.13
2019-03-25T19:53:45.502Z,20.70
2019-03-25T20:19:31.977Z,13.33
2019-03-25T20:22:03.113Z,13.17
2019-03-25T20:24:34.264Z,13.13
2019-03-25T20:30:09.164Z,13.37
2019-03-25T20:35:37.192Z,13.13
2019-03-25T20:38:23.063Z,15.77
2019-03-25T20:40:54.445Z,18.10
2019-03-25T20:43:27.047Z,23.17
2019-03-25T20:45:58.208Z,18.60
2019-03-25T20:48:29.564Z,16.20
2019-03-25T20:51:00.850Z,22.27
2019-03-25T20:53:32.106Z,19.97
2019-03-25T20:56:03.542Z,25.47
2019-03-25T20:58:34.648Z,32.47
2019-03-25T21:01:05.871Z,32.40
2019-03-25T21:03:36.996Z,39.03
2019-03-25T21:06:11.248Z,36.20
2019-03-25T21:08:42.416Z,36.63
2019-03-25T21:11:13.414Z,38.13
2019-03-25T21:13:44.731Z,33.30
2019-03-25T21:16:15.936Z,26.03
2019-03-25T21:18:47.271Z,19.43
2019-03-25T21:21:18.661Z,33.70
2019-03-25T21:23:49.804Z,37.70
2019-03-25T21:26:20.883Z,41.63
2019-03-25T21:28:53.051Z,29.83
2019-03-25T21:31:24.192Z,23.63
2019-03-25T21:33:55.458Z,18.90
2019-03-25T21:36:26.609Z,24.37
2019-03-25T21:38:57.723Z,24.53
2019-03-25T21:41:29.011Z,19.80
2019-03-25T21:44:00.209Z,20.97
2019-03-25T21:46:31.371Z,44.73
2019-03-25T21:49:02.751Z,34.27
2019-03-25T21:51:33.974Z,36.33
2019-03-25T21:54:05.118Z,51.83
2019-03-25T21:56:36.302Z,64.17
2019-03-25T21:59:07.531Z,51.70
2019-03-25T22:01:38.664Z,58.50
2019-03-25T22:04:09.810Z,55.30
2019-03-25T22:06:40.880Z,49.50
2019-03-25T22:09:12.064Z,32.27
2019-03-25T22:11:43.212Z,54.90
2019-03-25T22:14:14.372Z,59.33
2019-03-25T22:16:49.327Z,60.17
2019-03-25T22:19:20.515Z,41.60
2019-03-25T22:21:51.673Z,39.17
2019-03-25T22:24:22.766Z,27.27
2019-03-25T22:26:53.852Z,18.87
2019-03-25T22:29:24.876Z,17.03
2019-03-25T22:31:56.188Z,16.37
2019-03-25T22:34:27.342Z,17.30
2019-03-25T22:36:58.499Z,17.03
2019-03-25T22:39:29.625Z,19.17
2019-03-25T22:42:01.077Z,17.20
2019-03-25T22:44:32.180Z,18.47
2019-03-25T22:47:03.396Z,15.80
2019-03-25T22:49:34.481Z,16.20
2019-03-25T22:52:05.548Z,15.47
2019-03-25T22:54:36.705Z,17.37
2019-03-25T22:57:07.890Z,15.73
2019-03-25T22:59:40.752Z,16.63
2019-03-25T23:02:12.014Z,17.37
2019-03-25T23:04:43.065Z,15.20
2019-03-25T23:07:14.182Z,17.47
2019-03-25T23:09:46.433Z,16.43
2019-03-25T23:12:17.465Z,16.90
2019-03-25T23:14:48.666Z,17.60
2019-03-25T23:17:19.751Z,14.17
2019-03-25T23:19:50.788Z,16.37
2019-03-25T23:22:21.951Z,16.77
2019-03-25T23:24:54.059Z,17.40
2019-03-25T23:27:25.327Z,15.43
2019-03-25T23:29:56.528Z,17.73
2019-03-25T23:32:27.625Z,15.53
2019-03-25T23:34:58.803Z,15.07
2019-03-25T23:37:29.922Z,15.53
2019-03-25T23:40:01.176Z,16.40
2019-03-25T23:42:32.392Z,17.40
2019-03-25T23:45:03.495Z,16.37
2019-03-25T23:47:34.669Z,16.40
2019-03-25T23:50:07.377Z,16.00
2019-03-25T23:52:38.391Z,16.60
2019-03-25T23:55:09.546Z,17.57
2019-03-25T23:57:40.715Z,16.77
